Latest Weather Observations for Browse Island

IDW60801

Issued at 6:23 pm WST Monday 17 December 2018 (issued every 10 minutes, with the page automatically refreshed every 10 minutes)

About weather observations | Map of weather stations | Latest weather observations for WA | Other Formats
Station Details ID: 200784 Name: BROWSE ISLAND Lat: -14.11 Lon: 123.55 Height: 3.7 m
Data from the previous 72 hours. | See also: Recent months at Browse Island
Date/Time
WST
Temp
°C
App
Temp
°C
Dew
Point
°C
Rel
Hum
%
Delta-T
°C
Wind Press
QNH
hPa
Press
MSL
hPa
Rain since
9am
mm
Dir  Spd
km/h
Gust
km/h
Spd
kts
Gust
kts
17/06:00pm 27.8 - - - - WSW 32 - 17 - 1007.0 1007.7 -
17/05:30pm 28.0 - - - - WSW 32 - 17 - 1007.0 - -
17/05:00pm 27.8 - - - - WSW 33 39 18 21 1007.3 1007.2 -
17/04:30pm 28.0 - - - - SW 33 - 18 - 1007.0 - -
17/04:00pm 27.8 - - - - SW 37 - 20 - 1007.0 1007.0 -
17/03:30pm 28.0 - - - - SW 35 - 19 - 1007.0 - -
17/03:00pm 28.0 - - - - SW 35 - 19 - 1007.0 1006.9 -
17/02:30pm 28.0 - - - - SW 37 - 20 - 1007.0 - -
17/02:00pm 28.0 - - - - SW 37 - 20 - 1007.0 1007.3 -
17/01:30pm 28.0 - - - - SW 35 - 19 - 1007.0 - -
17/01:00pm 28.0 - - - - SW 35 - 19 - 1007.0 1007.8 -
17/12:30pm 28.0 - - - - WSW 35 - 19 - 1008.0 - -
17/12:00pm 28.2 - - - - SW 33 - 18 - 1008.0 1008.3 -
17/11:30am 28.0 - - - - WSW 35 - 19 - 1008.0 - -
17/11:00am 28.2 - - - - SW 37 - 20 - 1008.0 1008.8 -
17/10:30am 28.0 - - - - WSW 33 - 18 - 1009.0 - -
17/10:00am 28.2 - - - - WSW 33 - 18 - 1009.0 1009.2 -
17/09:30am 28.0 - - - - WSW 33 - 18 - 1009.0 - -
17/09:00am 28.1 - - - - SW 33 - 18 - 1009.0 1009.6 -
17/08:30am 28.0 - - - - WSW 33 - 18 - 1009.0 - -
17/08:00am 27.9 - - - - SW 28 - 15 - 1009.0 1009.6 -
17/07:30am 28.0 - - - - SW 30 - 16 - 1009.0 - -
17/07:00am 27.9 - - - - SW 32 - 17 - 1009.0 1009.5 -
17/06:30am 28.0 - - - - WSW 28 - 15 - 1009.0 - -
17/06:00am 27.8 - - - - WSW 33 - 18 - 1008.0 1008.4 -
17/05:30am 28.0 - - - - WSW 33 - 18 - 1008.0 - -
17/05:00am 27.5 - - - - WSW 32 - 17 - 1007.0 1007.5 -
17/04:30am 28.0 - - - - WSW 32 - 17 - 1007.0 - -
17/04:00am 27.6 - - - - WSW 33 - 18 - 1006.0 1006.7 -
17/03:30am 27.7 - - - - WSW 35 43 19 23 1006.6 1006.5 -
17/03:00am 27.6 - - - - WSW 35 - 19 - 1006.0 1006.4 -
17/02:30am 28.0 - - - - WSW 35 - 19 - 1006.0 - -
17/02:00am 27.6 - - - - WSW 33 - 18 - 1006.0 1006.7 -
17/01:30am 28.0 - - - - WSW 33 - 18 - 1007.0 - -
17/01:00am 27.7 - - - - WSW 32 - 17 - 1007.0 1007.1 -
17/12:30am 28.0 - - - - WSW 32 - 17 - 1007.0 - -
17/12:00am 27.7 - - - - WSW 33 - 18 - 1008.0 1008.2 -
 
Date/Time
WST
Temp
°C
App
Temp
°C
Dew
Point
°C
Rel
Hum
%
Delta-T
°C
Wind Press
QNH
hPa
Press
MSL
hPa
Rain since
9am
mm
Dir  Spd
km/h
Gust
km/h
Spd
kts
Gust
kts
16/11:30pm 28.0 - - - - WSW 33 - 18 - 1008.0 - -
16/11:00pm 27.8 - - - - WSW 33 - 18 - 1008.0 1008.6 -
16/10:30pm 28.0 - - - - WSW 35 - 19 - 1008.0 - -
16/10:00pm 28.1 - - - - WSW 35 - 19 - 1008.0 1008.8 -
16/09:30pm 28.0 - - - - WSW 35 - 19 - 1008.0 - -
16/09:00pm 28.1 - - - - WSW 35 - 19 - 1008.0 1008.8 -
16/08:30pm 28.0 - - - - WSW 37 - 20 - 1008.0 - -
16/08:00pm 28.1 - - - - WSW 37 - 20 - 1008.0 1008.3 -
16/07:30pm 28.0 - - - - WSW 35 - 19 - 1008.0 - -
16/07:00pm 28.2 - - - - WSW 35 41 19 22 1008.2 1008.1 -
16/06:30pm 28.0 - - - - WSW 37 - 20 - 1007.0 - -
16/06:00pm 28.5 - - - - WSW 37 41 20 22 1007.8 1007.7 -
16/05:30pm 29.0 - - - - WSW 37 - 20 - 1007.0 - -
16/05:00pm 28.6 - - - - WSW 39 - 21 - 1007.0 1007.2 -
16/04:30pm 29.0 - - - - WSW 35 - 19 - 1007.0 - -
16/04:00pm 28.8 - - - - WSW 33 - 18 - 1007.0 1007.0 -
16/03:30pm 29.0 - - - - WSW 37 - 20 - 1007.0 - -
16/03:00pm 28.6 - - - - WSW 35 - 19 - 1007.0 1006.9 -
16/02:30pm 29.0 - - - - WSW 35 - 19 - 1007.0 - -
16/02:00pm 28.5 - - - - WSW 35 - 19 - 1007.0 1007.1 -
16/01:30pm 29.0 - - - - WSW 35 - 19 - 1007.0 - -
16/01:00pm 28.8 - - - - WSW 35 - 19 - 1007.0 1007.7 -
16/12:30pm 29.0 - - - - WSW 35 - 19 - 1008.0 - -
16/12:00pm 28.6 - - - - WSW 33 - 18 - 1008.0 1007.9 -
16/11:30am 29.0 - - - - W 32 - 17 - 1008.0 - -
16/11:00am 28.8 - - - - WSW 32 - 17 - 1008.0 1008.8 -
16/10:30am 29.0 - - - - W 30 - 16 - 1008.0 - -
16/10:00am 28.5 - - - - W 37 - 20 - 1009.0 1008.9 -
16/09:30am 28.0 - - - - W 33 - 18 - 1008.0 - -
16/09:00am 28.3 - - - - W 33 - 18 - 1008.0 1008.8 -
16/08:30am 28.0 - - - - W 35 - 19 - 1008.0 - -
16/08:00am 28.4 - - - - W 35 - 19 - 1008.0 1008.7 -
16/07:30am 28.0 - - - - W 33 - 18 - 1008.0 - -
16/07:00am 28.3 - - - - W 32 - 17 - 1008.0 1008.5 -
16/06:30am 28.0 - - - - W 33 - 18 - 1008.0 - -
16/06:00am 28.3 - - - - W 33 - 18 - 1007.0 1007.7 -
16/05:30am 28.0 - - - - W 30 - 16 - 1007.0 - -
16/05:00am 28.1 - - - - W 32 - 17 - 1007.0 1007.0 -
16/04:30am 28.0 - - - - WSW 33 - 18 - 1006.0 - -
16/04:00am 28.3 - - - - WSW 32 - 17 - 1006.0 1006.5 -
16/03:30am 28.0 - - - - W 33 - 18 - 1006.0 - -
16/03:00am 28.4 - - - - W 35 - 19 - 1006.0 1006.0 -
16/02:30am 28.0 - - - - W 33 - 18 - 1006.0 - -
16/02:00am 28.3 - - - - W 35 - 19 - 1006.0 1006.2 -
16/01:30am 28.0 - - - - W 35 - 19 - 1006.0 - -
16/01:00am 28.4 - - - - W 33 - 18 - 1006.0 1006.3 -
16/12:30am 28.0 - - - - W 35 - 19 - 1006.0 - -
16/12:00am 28.2 - - - - W 35 - 19 - 1006.0 1006.6 -
 
Date/Time
WST
Temp
°C
App
Temp
°C
Dew
Point
°C
Rel
Hum
%
Delta-T
°C
Wind Press
QNH
hPa
Press
MSL
hPa
Rain since
9am
mm
Dir  Spd
km/h
Gust
km/h
Spd
kts
Gust
kts
15/11:30pm 28.0 - - - - W 33 - 18 - 1007.0 - -
15/11:00pm 28.4 - - - - W 33 - 18 - 1007.0 1007.2 -
15/10:30pm 28.0 - - - - W 35 - 19 - 1007.0 - -
15/10:00pm 28.5 - - - - W 35 - 19 - 1007.0 1007.3 -
15/09:30pm 29.0 - - - - W 33 - 18 - 1007.0 - -
15/09:00pm 28.5 - - - - W 33 - 18 - 1007.0 1007.2 -
15/08:30pm 29.0 - - - - W 32 - 17 - 1007.0 - -
15/08:00pm 28.5 - - - - W 30 - 16 - 1006.0 1006.4 -
15/07:30pm 29.0 - - - - W 32 - 17 - 1006.0 - -
15/07:00pm 28.7 - - - - W 32 37 17 20 1006.0 1005.9 -
15/06:30pm 29.0 - - - - W 30 - 16 - 1005.0 - -
15/06:00pm 28.6 - - - - W 32 - 17 - 1005.0 1005.2 -
15/05:30pm 29.0 - - - - W 32 - 17 - 1005.0 - -
15/05:00pm 28.9 - - - - W 30 - 16 - 1004.0 1004.8 -
15/04:30pm 29.0 - - - - W 30 - 16 - 1004.0 - -
15/04:00pm 28.9 - - - - W 30 - 16 - 1004.0 1004.6 -
15/03:30pm 29.0 - - - - W 30 - 16 - 1004.0 - -
15/03:00pm 28.9 - - - - W 26 - 14 - 1004.0 1004.8 -
15/02:30pm 29.0 - - - - W 26 - 14 - 1005.0 - -
15/02:00pm 28.8 - - - - W 26 - 14 - 1005.0 1005.0 -
15/01:30pm 29.0 - - - - W 28 - 15 - 1005.0 - -
15/01:00pm 28.9 - - - - W 28 - 15 - 1005.0 1005.5 -
15/12:30pm 29.0 - - - - W 30 - 16 - 1006.0 - -
15/12:00pm 29.3 - - - - W 28 - 15 - 1006.0 1006.3 -
15/11:30am 29.0 - - - - W 28 - 15 - 1006.0 - -
15/11:00am 28.8 - - - - W 24 - 13 - 1006.0 1006.8 -
15/10:30am 29.0 - - - - W 26 - 14 - 1007.0 - -
15/10:00am 28.9 - - - - W 28 - 15 - 1007.0 1007.2 -
15/09:30am 29.0 - - - - W 30 - 16 - 1007.0 - -
15/09:00am 28.7 - - - - W 30 - 16 - 1007.0 1007.5 -
15/08:30am 29.0 - - - - W 33 - 18 - 1007.0 - -
15/08:00am 28.7 - - - - W 32 - 17 - 1007.0 1007.6 -
15/07:30am 29.0 - - - - W 32 - 17 - 1007.0 - -
15/07:00am 28.7 - - - - W 30 - 16 - 1007.0 1007.3 -
15/06:30am 29.0 - - - - W 33 - 18 - 1007.0 - -
15/06:00am 28.4 - - - - W 33 - 18 - 1006.0 1006.6 -
15/05:30am 29.0 - - - - W 33 - 18 - 1006.0 - -
15/05:00am 28.5 - - - - W 33 - 18 - 1006.0 1006.0 -
15/04:30am 28.0 - - - - W 33 - 18 - 1005.0 - -
15/04:00am 28.5 - - - - W 33 - 18 - 1005.0 1005.2 -
15/03:30am 29.0 - - - - W 33 - 18 - 1005.0 - -
15/03:00am 28.5 - - - - W 32 - 17 - 1005.0 1005.1 -
15/02:30am 29.0 - - - - W 28 - 15 - 1005.0 - -
15/02:00am 28.4 - - - - W 28 - 15 - 1005.0 1005.5 -
15/01:30am 29.0 - - - - W 32 - 17 - 1005.0 - -
15/01:00am 28.6 - - - - W 30 - 16 - 1006.0 1006.0 -
15/12:30am 29.0 - - - - W 30 - 16 - 1006.0 - -
15/12:00am 28.7 - - - - W 28 - 15 - 1006.0 1006.8 -
 
Date/Time
WST
Temp
°C
App
Temp
°C
Dew
Point
°C
Rel
Hum
%
Delta-T
°C
Wind Press
QNH
hPa
Press
MSL
hPa
Rain since
9am
mm
Dir  Spd
km/h
Gust
km/h
Spd
kts
Gust
kts
14/11:30pm 29.0 - - - - W 28 - 15 - 1006.0 - -
14/11:00pm 28.7 - - - - W 28 - 15 - 1007.0 1007.0 -
14/10:30pm 29.0 - - - - W 32 - 17 - 1007.0 - -
14/10:00pm 28.8 - - - - W 32 - 17 - 1007.0 1007.2 -
14/09:30pm 29.0 - - - - W 32 - 17 - 1007.0 - -
14/09:00pm 28.8 - - - - W 32 - 17 - 1007.0 1007.3 -
14/08:30pm 29.0 - - - - W 33 - 18 - 1007.0 - -
14/08:00pm 28.8 - - - - W 33 - 18 - 1006.0 1006.6 -
14/07:30pm 29.0 - - - - W 35 - 19 - 1006.0 - -
14/07:00pm 28.8 - - - - W 33 39 18 21 1006.2 1006.1 -
14/06:30pm 29.0 - - - - W 32 - 17 - 1006.0 - -

Other Formats:

Comma delimited format used in spreadsheet applications
http://www.bom.gov.au/fwo/IDW60801/IDW60801.94103.axf

JavaScript Object Notation format (JSON) in row-major order
http://www.bom.gov.au/fwo/IDW60801/IDW60801.94103.json